Time;durP1;ratioP1;P1;durP2;ratioP2;P2;SDS_P1;SDS_P2;PMS_P1;PMS_P2;Temp;Humidity;BMP_temperature;BMP_pressure;BME280_temperature;BME280_humidity;BME280_pressure;Samples;Min_cycle;Max_cycle;Signal;HPM_P1;HPM_P2
2023/04/08 00:00:06;;;;;;;24.13;22.30;;;;;;;14.16;54.50;102128.81;5012687;28;20064;-84
2023/04/08 00:02:32;;;;;;;26.23;23.67;;;;;;;14.15;54.57;102125.28;5010592;28;20049;-83
2023/04/08 00:04:57;;;;;;;25.42;23.60;;;;;;;14.16;54.18;102128.81;4996779;28;20588;-84
2023/04/08 00:07:22;;;;;;;24.35;22.77;;;;;;;14.15;54.35;102133.44;5008432;28;20045;-83
2023/04/08 00:09:48;;;;;;;24.95;23.15;;;;;;;14.14;54.55;102131.78;5002315;28;20445;-83
2023/04/08 00:12:13;;;;;;;25.30;23.50;;;;;;;14.14;54.29;102131.78;5005208;28;20084;-85
2023/04/08 00:14:40;;;;;;;24.80;22.85;;;;;;;14.13;54.42;102132.84;5001287;28;20081;-83
2023/04/08 00:17:06;;;;;;;27.02;24.80;;;;;;;14.13;54.53;102129.31;4993467;28;20034;-82
2023/04/08 00:19:32;;;;;;;26.08;24.35;;;;;;;14.13;54.48;102142.88;5000826;28;20394;-83
2023/04/08 00:21:58;;;;;;;24.20;22.48;;;;;;;14.12;54.28;102130.38;5011154;28;20038;-83
2023/04/08 00:24:23;;;;;;;24.92;23.27;;;;;;;14.12;54.33;102139.34;4985613;28;20435;-84
2023/04/08 00:26:49;;;;;;;24.67;23.08;;;;;;;14.11;54.56;102137.69;5008836;28;20070;-84
2023/04/08 00:29:15;;;;;;;26.23;24.20;;;;;;;14.10;54.43;102143.34;5012844;28;20466;-84
2023/04/08 00:31:40;;;;;;;23.50;22.00;;;;;;;14.11;54.59;102139.56;5012113;28;20092;-83
2023/04/08 00:34:06;;;;;;;25.48;23.40;;;;;;;14.10;54.18;102148.78;5003395;28;20037;-85
2023/04/08 00:36:31;;;;;;;24.27;22.33;;;;;;;14.11;54.24;102153.16;5007611;28;20037;-83
2023/04/08 00:38:57;;;;;;;24.42;22.63;;;;;;;14.10;54.35;102143.34;5006330;28;20068;-83
2023/04/08 00:41:22;;;;;;;24.77;23.08;;;;;;;14.08;54.65;102143.56;5012433;28;20163;-83
2023/04/08 00:43:47;;;;;;;25.60;23.60;;;;;;;14.07;54.44;102142.75;5006802;28;20033;-84
2023/04/08 00:46:14;;;;;;;28.98;25.85;;;;;;;14.08;54.33;102146.28;4996888;28;20455;-83
2023/04/08 00:48:39;;;;;;;22.90;21.33;;;;;;;14.06;54.51;102151.13;4988618;28;20436;-84
2023/04/08 00:51:05;;;;;;;23.38;21.55;;;;;;;14.06;54.24;102157.41;5002933;28;20046;-79
2023/04/08 00:53:31;;;;;;;24.45;22.55;;;;;;;14.06;54.39;102156.56;4997197;28;20093;-84
2023/04/08 00:55:56;;;;;;;24.67;22.55;;;;;;;14.05;54.71;102155.75;5007835;28;20053;-85
2023/04/08 00:58:22;;;;;;;26.02;24.17;;;;;;;14.04;54.40;102151.38;5001849;28;20054;-82
2023/04/08 01:00:59;;;;;;;25.75;23.85;;;;;;;14.04;54.46;102150.56;4999626;28;20164;-82
2023/04/08 01:04:00;;;;;;;24.20;22.35;;;;;;;14.02;54.69;102149.94;5005958;28;20046;-82
2023/04/08 01:06:34;;;;;;;25.17;23.40;;;;;;;14.02;54.27;102152.66;4982041;28;20053;-82
2023/04/08 01:09:04;;;;;;;26.52;24.30;;;;;;;14.01;54.65;102159.16;5004985;28;20470;-84
2023/04/08 01:11:31;;;;;;;24.50;22.70;;;;;;;14.02;54.50;102160.81;5006029;28;20042;-84
2023/04/08 01:13:57;;;;;;;25.35;23.48;;;;;;;14.02;54.51;102163.53;5004783;28;20034;-84
2023/04/08 01:16:25;;;;;;;27.08;24.65;;;;;;;14.02;54.36;102163.53;5003584;28;20060;-84
2023/04/08 01:18:52;;;;;;;24.67;22.85;;;;;;;14.01;54.47;102159.16;4998621;28;20041;-84
2023/04/08 01:21:21;;;;;;;26.15;23.88;;;;;;;14.02;54.58;102160.81;4992062;28;20386;-84
2023/04/08 01:23:56;;;;;;;;;;;;;;;13.98;54.48;102162.31;4994512;28;20457;-83
2023/04/08 01:26:24;;;;;;;24.83;22.70;;;;;;;13.96;54.23;102156.28;5005013;28;19921;-83
2023/04/08 01:28:53;;;;;;;25.63;23.43;;;;;;;13.96;54.46;102165.28;5000959;28;20029;-84
2023/04/08 01:31:21;;;;;;;26.27;24.40;;;;;;;13.95;54.55;102166.34;5007844;28;20588;-84
2023/04/08 01:33:48;;;;;;;25.52;23.23;;;;;;;13.96;54.53;102164.44;5000980;28;20065;-85
2023/04/08 01:36:14;;;;;;;25.20;23.25;;;;;;;13.97;54.43;102163.41;5010569;28;20481;-85
2023/04/08 01:38:40;;;;;;;25.67;23.92;;;;;;;13.96;54.45;102157.16;5003535;28;20038;-84
2023/04/08 01:41:09;;;;;;;24.13;22.27;;;;;;;13.97;54.51;102161.50;5003554;28;20130;-82
2023/04/08 01:43:35;;;;;;;23.77;21.83;;;;;;;13.98;54.24;102165.03;4996355;28;20034;-84
2023/04/08 01:46:01;;;;;;;26.23;23.95;;;;;;;13.98;54.52;102170.47;5001703;28;20049;-84
2023/04/08 01:48:27;;;;;;;23.98;22.38;;;;;;;13.96;54.58;102168.00;5004597;28;20638;-83
2023/04/08 01:50:55;;;;;;;23.65;21.85;;;;;;;13.96;54.48;102165.28;4994742;28;20073;-84
2023/04/08 01:53:20;;;;;;;24.88;23.00;;;;;;;13.97;54.57;102166.13;4998502;28;20065;-84
2023/04/08 01:55:52;;;;;;;23.88;22.17;;;;;;;13.97;54.42;102172.38;5012574;28;20030;-86
2023/04/08 01:58:20;;;;;;;25.45;23.45;;;;;;;13.98;54.71;102167.75;5007887;28;20058;-83
2023/04/08 02:00:46;;;;;;;25.83;23.83;;;;;;;13.96;54.21;102168.00;5005685;28;20501;-83
2023/04/08 02:03:13;;;;;;;24.50;22.52;;;;;;;13.97;54.53;102172.38;5011494;28;20493;-85
2023/04/08 02:05:39;;;;;;;29.88;26.20;;;;;;;13.96;54.39;102169.88;5014353;28;20044;-84
2023/04/08 02:08:05;;;;;;;28.00;25.52;;;;;;;13.96;54.23;102168.00;4986097;28;20154;-83
2023/04/08 02:10:30;;;;;;;24.42;22.73;;;;;;;13.95;54.47;102160.91;5004894;28;20506;-85
2023/04/08 02:12:56;;;;;;;25.00;22.85;;;;;;;13.94;54.37;102159.25;5011258;28;20034;-84
2023/04/08 02:15:22;;;;;;;26.88;24.58;;;;;;;13.95;54.47;102160.91;5005337;28;20106;-84
2023/04/08 02:18:07;;;;;;;24.08;22.23;;;;;;;13.94;54.34;102161.97;5029075;28;20035;-82
2023/04/08 02:20:43;;;;;;;25.40;23.55;;;;;;;13.95;54.39;102160.06;5024610;28;20039;-79
2023/04/08 02:23:20;;;;;;;24.38;22.48;;;;;;;13.92;54.57;102166.81;5019294;28;20080;-83
2023/04/08 02:25:47;;;;;;;24.90;23.00;;;;;;;13.92;54.68;102164.09;5020308;28;20026;-83
2023/04/08 02:28:14;;;;;;;25.85;23.85;;;;;;;13.92;54.49;102155.94;5002081;28;20026;-78
2023/04/08 02:30:41;;;;;;;26.08;23.83;;;;;;;13.93;54.72;102173.06;5016394;28;20049;-85
2023/04/08 02:33:08;;;;;;;26.70;24.38;;;;;;;13.92;54.36;102164.09;5011164;28;20137;-84
2023/04/08 02:35:35;;;;;;;25.70;23.48;;;;;;;13.93;54.36;102171.16;5018247;28;20052;-81
2023/04/08 02:38:00;;;;;;;25.92;23.65;;;;;;;13.93;54.32;102167.63;5014511;28;20054;-84
2023/04/08 02:40:28;;;;;;;27.20;24.38;;;;;;;13.93;54.63;102164.91;5019801;28;20034;-83
2023/04/08 02:42:55;;;;;;;25.58;23.65;;;;;;;13.93;54.53;102167.63;5016164;28;20034;-84
2023/04/08 02:45:21;;;;;;;27.83;24.95;;;;;;;13.92;54.41;102172.22;5023366;28;20026;-84
2023/04/08 02:47:47;;;;;;;25.80;23.90;;;;;;;13.93;54.39;102181.22;5016172;28;20037;-84
2023/04/08 02:50:12;;;;;;;26.40;24.25;;;;;;;13.93;54.41;102181.22;5017450;28;20259;-84
2023/04/08 02:52:40;;;;;;;25.30;23.55;;;;;;;13.92;54.60;102177.66;5018678;28;20030;-83
2023/04/08 02:55:08;;;;;;;25.15;23.05;;;;;;;13.92;54.64;102168.69;5014009;28;20094;-84
2023/04/08 02:57:34;;;;;;;23.60;21.75;;;;;;;13.91;54.47;102181.44;5028190;28;20250;-83
2023/04/08 03:00:00;;;;;;;25.75;23.90;;;;;;;13.90;54.54;102179.78;5032941;28;20038;-80
2023/04/08 03:02:25;;;;;;;26.17;24.08;;;;;;;13.91;54.45;102180.59;5027871;28;20077;-83
2023/04/08 03:04:50;;;;;;;25.77;23.70;;;;;;;13.91;54.52;102183.31;5008436;28;20062;-84
2023/04/08 03:07:16;;;;;;;26.55;24.23;;;;;;;13.89;54.67;102174.59;5015462;28;20462;-81
2023/04/08 03:09:41;;;;;;;26.60;24.42;;;;;;;13.90;54.45;102181.66;4996178;28;20056;-84
2023/04/08 03:12:06;;;;;;;24.63;22.77;;;;;;;13.90;54.57;102178.94;5000511;28;20041;-84
2023/04/08 03:14:32;;;;;;;28.45;26.02;;;;;;;13.89;54.38;102188.19;5010922;28;20450;-83
2023/04/08 03:16:57;;;;;;;25.00;22.90;;;;;;;13.89;54.57;102183.56;5000969;28;20092;-84
2023/04/08 03:19:22;;;;;;;28.73;26.10;;;;;;;13.88;54.31;102183.78;5007653;28;20038;-84
2023/04/08 03:21:48;;;;;;;24.67;22.67;;;;;;;13.88;54.61;102187.31;4990630;28;20030;-83
2023/04/08 03:24:13;;;;;;;25.17;23.40;;;;;;;13.88;54.53;102183.78;4993863;28;20038;-83
2023/04/08 03:26:39;;;;;;;25.15;23.02;;;;;;;13.87;54.82;102180.25;5009050;28;20493;-84
2023/04/08 03:29:05;;;;;;;25.00;23.10;;;;;;;13.88;54.41;102187.31;4997215;28;20026;-84
2023/04/08 03:31:31;;;;;;;29.13;26.48;;;;;;;13.87;54.45;102177.53;5005801;28;20125;-84
2023/04/08 03:33:56;;;;;;;26.90;24.75;;;;;;;13.87;54.53;102182.97;5007875;28;20108;-84
2023/04/08 03:36:22;;;;;;;25.45;23.45;;;;;;;13.87;54.63;102184.84;4976534;28;20041;-84
2023/04/08 03:38:47;;;;;;;26.08;23.67;;;;;;;13.85;54.37;102188.59;5007186;28;20448;-85
2023/04/08 03:41:12;;;;;;;28.23;26.08;;;;;;;13.85;54.68;102196.75;4999762;28;20038;-84
2023/04/08 03:43:38;;;;;;;25.48;23.48;;;;;;;13.86;54.79;102194.91;4987862;28;20037;-85
2023/04/08 03:46:03;;;;;;;25.38;23.58;;;;;;;13.86;54.54;102194.91;5002654;28;20038;-85
2023/04/08 03:48:28;;;;;;;26.95;24.92;;;;;;;13.85;54.65;102199.47;5006226;28;20042;-85
2023/04/08 03:50:54;;;;;;;28.60;26.35;;;;;;;13.85;54.39;102199.47;5013344;28;20363;-84
2023/04/08 03:53:19;;;;;;;28.63;25.80;;;;;;;13.85;54.29;102199.47;5000056;28;20061;-82
2023/04/08 03:55:45;;;;;;;25.65;23.65;;;;;;;13.84;54.53;102200.53;5007872;28;20415;-82
2023/04/08 03:58:10;;;;;;;26.35;23.77;;;;;;;13.84;54.35;102207.88;4994995;28;20390;-82
2023/04/08 04:00:36;;;;;;;26.63;24.45;;;;;;;13.84;54.61;102207.88;4995236;28;20085;-82
2023/04/08 04:03:01;;;;;;;26.10;23.70;;;;;;;13.83;54.27;102203.47;5001270;28;20056;-84
2023/04/08 04:05:27;;;;;;;25.83;23.52;;;;;;;13.83;54.51;102203.47;5001926;28;20041;-84
2023/04/08 04:07:52;;;;;;;25.55;23.58;;;;;;;13.82;54.48;102197.22;5007496;28;20109;-85
2023/04/08 04:10:17;;;;;;;23.75;22.10;;;;;;;13.81;54.47;102201.00;5000815;28;20042;-84
2023/04/08 04:12:43;;;;;;;26.05;23.77;;;;;;;13.82;54.43;102190.97;5003755;28;20054;-83
2023/04/08 04:15:09;;;;;;;24.73;22.88;;;;;;;13.81;54.32;102197.47;5011546;28;20042;-84
2023/04/08 04:17:35;;;;;;;28.25;25.95;;;;;;;13.81;54.50;102194.75;5001561;28;20068;-85
2023/04/08 04:20:04;;;;;;;25.98;24.13;;;;;;;13.81;54.62;102194.75;5004253;28;20034;-85
2023/04/08 04:22:29;;;;;;;;;;;;;;;13.77;54.51;102202.50;4997219;28;20118;-84
2023/04/08 04:24:54;;;;;;;27.13;24.48;;;;;;;13.77;54.21;102202.50;5013152;28;20029;-87
2023/04/08 04:27:19;;;;;;;26.55;24.58;;;;;;;13.77;54.61;102207.13;4993692;28;20042;-85
2023/04/08 04:29:45;;;;;;;25.35;23.10;;;;;;;13.77;54.60;102213.38;4995175;28;20647;-83
2023/04/08 04:32:10;;;;;;;26.08;23.95;;;;;;;13.76;54.70;102203.59;4998899;28;20065;-85
2023/04/08 04:34:36;;;;;;;26.55;24.48;;;;;;;13.77;54.77;102215.28;5004405;28;20092;-84
2023/04/08 04:37:01;;;;;;;25.98;23.83;;;;;;;13.76;54.76;102214.44;4994841;28;20901;-85
2023/04/08 04:39:26;;;;;;;27.45;25.17;;;;;;;13.77;54.73;102220.69;4999552;28;20042;-81
2023/04/08 04:41:52;;;;;;;26.08;23.83;;;;;;;13.77;54.51;102224.25;5007477;28;20034;-85
2023/04/08 04:44:18;;;;;;;26.40;24.20;;;;;;;13.77;54.44;102226.94;4998858;28;20088;-84
2023/04/08 04:46:44;;;;;;;27.05;24.75;;;;;;;13.77;54.53;102224.25;4995470;28;20122;-84
2023/04/08 04:49:09;;;;;;;27.02;24.52;;;;;;;13.77;54.40;102232.38;4998665;28;20095;-82
2023/04/08 04:51:35;;;;;;;26.50;24.38;;;;;;;13.78;54.45;102233.22;5007319;28;20030;-85
2023/04/08 04:54:00;;;;;;;26.00;23.90;;;;;;;13.78;54.37;102238.63;5006528;28;20038;-85
2023/04/08 04:56:26;;;;;;;27.83;25.25;;;;;;;13.77;54.62;102235.09;4995855;28;20046;-79
2023/04/08 04:58:52;;;;;;;26.10;23.92;;;;;;;13.77;54.55;102235.09;5006661;28;20065;-85
2023/04/08 05:01:17;;;;;;;26.38;23.92;;;;;;;13.77;54.75;102237.00;4995359;28;20030;-84
2023/04/08 05:03:43;;;;;;;26.08;23.92;;;;;;;13.77;54.60;102237.00;5009980;28;20041;-84
2023/04/08 05:06:08;;;;;;;27.80;25.23;;;;;;;13.77;54.66;102248.69;5011072;28;20041;-83
2023/04/08 05:08:33;;;;;;;25.90;23.48;;;;;;;13.76;54.45;102246.22;4991966;28;20042;-83
2023/04/08 05:11:01;;;;;;;26.35;24.08;;;;;;;13.76;54.75;102249.75;4994884;28;20034;-84
2023/04/08 05:13:27;;;;;;;26.63;24.42;;;;;;;13.76;54.44;102249.75;5008312;28;20048;-81
2023/04/08 05:15:52;;;;;;;26.63;24.35;;;;;;;13.75;54.47;102256.22;4997385;28;20030;-85
2023/04/08 05:18:18;;;;;;;26.65;24.25;;;;;;;13.76;54.62;102257.06;5005081;28;20087;-85
2023/04/08 05:20:44;;;;;;;28.15;25.38;;;;;;;13.76;54.36;102260.63;5009539;28;20053;-82
2023/04/08 05:23:09;;;;;;;25.30;22.67;;;;;;;13.76;54.34;102259.78;5009901;28;20030;-83
2023/04/08 05:25:35;;;;;;;26.55;24.13;;;;;;;13.75;54.55;102258.13;4995179;28;20042;-85
2023/04/08 05:28:00;;;;;;;26.88;24.48;;;;;;;13.75;54.38;102264.38;4993913;28;20437;-84
2023/04/08 05:30:26;;;;;;;25.83;23.50;;;;;;;13.74;54.62;102265.44;5001841;28;20042;-83
2023/04/08 05:32:51;;;;;;;26.48;24.08;;;;;;;13.75;54.46;102263.53;5007657;28;20034;-84
2023/04/08 05:35:16;;;;;;;24.65;22.42;;;;;;;13.75;54.49;102260.81;5003836;28;20041;-84
2023/04/08 05:37:42;;;;;;;27.15;24.50;;;;;;;13.74;54.32;102268.16;4992539;28;20037;-84
2023/04/08 05:40:08;;;;;;;27.00;24.77;;;;;;;13.75;54.45;102271.69;5005737;28;20029;-84
2023/04/08 05:42:33;;;;;;;30.13;26.83;;;;;;;13.74;54.33;102273.59;4988648;28;20038;-84
2023/04/08 05:44:58;;;;;;;27.73;25.63;;;;;;;13.74;54.40;102276.28;5012962;28;20084;-85
2023/04/08 05:47:24;;;;;;;27.27;24.88;;;;;;;13.74;54.45;102273.59;5004602;28;20073;-81
2023/04/08 05:49:49;;;;;;;26.92;24.35;;;;;;;13.73;54.27;102271.09;4992532;28;20035;-82
2023/04/08 05:52:15;;;;;;;21.77;20.30;;;;;;;13.74;54.58;102275.47;4996720;28;20393;-84
2023/04/08 05:54:44;;;;;;;26.88;24.48;;;;;;;13.74;54.19;102278.19;4997802;28;20118;-83
2023/04/08 05:57:10;;;;;;;26.83;24.17;;;;;;;13.72;54.41;102275.69;5003349;28;20033;-85
2023/04/08 05:59:36;;;;;;;36.67;28.42;;;;;;;13.73;54.39;102277.34;4992163;28;20054;-84
2023/04/08 06:02:01;;;;;;;25.73;23.25;;;;;;;13.72;54.65;102278.41;4991860;28;20046;-85
2023/04/08 06:04:26;;;;;;;27.02;24.30;;;;;;;13.73;54.69;102285.47;5001316;28;20025;-85
2023/04/08 06:06:52;;;;;;;27.05;24.75;;;;;;;13.72;54.48;102291.97;5007049;28;20113;-86
2023/04/08 06:09:17;;;;;;;28.38;25.77;;;;;;;13.73;54.38;102287.38;4977567;28;20042;-81
2023/04/08 06:11:42;;;;;;;27.25;24.77;;;;;;;13.72;54.72;102294.69;4986282;28;20117;-83
2023/04/08 06:14:08;;;;;;;29.60;25.95;;;;;;;13.73;54.41;102293.63;4995147;28;20038;-83
2023/04/08 06:16:33;;;;;;;27.38;24.48;;;;;;;13.73;54.48;102298.25;5009603;28;20045;-80
2023/04/08 06:18:59;;;;;;;28.58;25.58;;;;;;;13.72;54.41;102302.03;5004200;28;20034;-82
2023/04/08 06:21:25;;;;;;;24.88;22.77;;;;;;;13.72;54.44;102310.16;4993265;28;20042;-82
2023/04/08 06:23:50;;;;;;;28.60;25.80;;;;;;;13.72;54.49;102307.44;4994066;28;20060;-83
2023/04/08 06:26:16;;;;;;;26.10;23.75;;;;;;;13.72;54.76;102310.16;5000611;28;20030;-84
2023/04/08 06:28:41;;;;;;;27.23;24.83;;;;;;;13.72;54.46;102313.72;4996242;28;20409;-84
2023/04/08 06:31:06;;;;;;;27.35;24.67;;;;;;;13.71;54.53;102312.06;4993732;28;20030;-85
2023/04/08 06:33:32;;;;;;;27.45;25.05;;;;;;;13.72;54.41;102323.75;4992617;28;20085;-84
2023/04/08 06:36:03;;;;;;;26.63;23.98;;;;;;;13.72;54.51;102321.84;5001410;28;20052;-85
2023/04/08 06:38:30;;;;;;;26.58;24.13;;;;;;;13.72;54.64;102318.31;4993790;28;20042;-85
2023/04/08 06:40:55;;;;;;;27.25;24.92;;;;;;;13.73;54.43;102325.41;5007250;28;20548;-85
2023/04/08 06:43:21;;;;;;;25.13;22.42;;;;;;;13.71;54.43;102327.50;4993445;28;20053;-85
2023/04/08 06:45:46;;;;;;;27.15;24.85;;;;;;;13.72;54.56;102335.44;5006628;28;20133;-84
2023/04/08 06:48:11;;;;;;;25.15;22.88;;;;;;;13.72;54.61;102338.16;4992935;28;20494;-84
2023/04/08 06:50:37;;;;;;;26.23;23.88;;;;;;;13.72;54.44;102340.88;5005009;28;20121;-83
2023/04/08 06:53:02;;;;;;;27.38;25.05;;;;;;;13.71;54.67;102336.50;5004985;28;20108;-83
2023/04/08 06:55:27;;;;;;;27.98;25.52;;;;;;;13.72;54.50;102340.03;5010205;28;20037;-84
2023/04/08 06:57:53;;;;;;;26.58;24.15;;;;;;;13.72;54.52;102340.88;5008382;28;20447;-85
2023/04/08 07:00:18;;;;;;;24.92;23.00;;;;;;;13.73;54.54;102352.56;5008792;28;20053;-84
2023/04/08 07:02:44;;;;;;;26.88;24.52;;;;;;;13.73;54.64;102349.84;5002420;28;20155;-81
2023/04/08 07:05:10;;;;;;;25.17;22.73;;;;;;;13.73;54.56;102344.41;4978541;28;20125;-84
2023/04/08 07:07:35;;;;;;;24.38;22.27;;;;;;;13.73;54.43;102352.56;5003374;28;20043;-85
2023/04/08 07:10:00;;;;;;;26.52;24.45;;;;;;;13.72;54.40;102354.44;5010289;28;20118;-86
2023/04/08 07:12:26;;;;;;;25.80;23.45;;;;;;;13.73;54.67;102358.81;5013589;28;20076;-87
2023/04/08 07:14:52;;;;;;;28.95;25.95;;;;;;;13.73;54.48;102366.94;4999169;28;20046;-84
2023/04/08 07:17:17;;;;;;;26.77;24.52;;;;;;;13.75;54.38;102367.56;5004413;28;20530;-83
2023/04/08 07:19:43;;;;;;;28.02;25.63;;;;;;;13.74;54.40;102363.19;5007691;28;20394;-84
2023/04/08 07:22:08;;;;;;;26.73;24.55;;;;;;;13.75;54.38;102367.56;5007524;28;20034;-83
2023/04/08 07:24:34;;;;;;;26.15;23.98;;;;;;;13.75;54.56;102370.28;4995951;28;20034;-85
2023/04/08 07:26:59;;;;;;;26.00;23.77;;;;;;;13.75;54.90;102370.28;5015453;28;20045;-86
2023/04/08 07:29:24;;;;;;;24.67;22.52;;;;;;;13.75;54.61;102375.72;5009821;28;20538;-84
2023/04/08 07:31:50;;;;;;;28.60;25.70;;;;;;;13.77;54.59;102376.31;5013282;28;20053;-84
2023/04/08 07:34:16;;;;;;;27.17;24.73;;;;;;;13.76;54.51;102363.00;5016897;28;20038;-85
2023/04/08 07:36:42;;;;;;;26.17;23.73;;;;;;;13.76;54.58;102376.56;5025896;28;20045;-80
2023/04/08 07:39:07;;;;;;;27.33;24.73;;;;;;;13.77;54.62;102376.31;5010390;28;20032;-83
2023/04/08 07:41:32;;;;;;;26.80;24.05;;;;;;;13.77;54.72;102376.31;5012273;28;20096;-84
2023/04/08 07:43:58;;;;;;;25.10;22.92;;;;;;;13.77;54.31;102376.31;4998875;28;20062;-84
2023/04/08 07:46:23;;;;;;;26.80;24.25;;;;;;;13.76;54.62;102379.28;5026061;28;20033;-85
2023/04/08 07:48:49;;;;;;;26.30;24.02;;;;;;;13.78;54.73;102388.88;5018956;28;20035;-84
2023/04/08 07:51:14;;;;;;;25.63;23.15;;;;;;;13.78;54.46;102388.88;5012630;28;20069;-84
2023/04/08 07:53:40;;;;;;;24.88;22.88;;;;;;;13.78;54.47;102394.31;5010298;28;20050;-82
2023/04/08 07:56:14;;;;;;;25.83;23.70;;;;;;;13.79;54.79;102392.41;5021634;28;20033;-84
2023/04/08 07:58:40;;;;;;;25.45;23.15;;;;;;;13.79;54.56;102390.53;5003338;28;20037;-86
2023/04/08 08:01:20;;;;;;;26.50;24.30;;;;;;;13.78;54.53;102393.44;5019707;28;20113;-83
2023/04/08 08:03:47;;;;;;;25.38;23.08;;;;;;;13.78;54.60;102397.00;4998837;28;20121;-85
2023/04/08 08:06:12;;;;;;;25.55;23.40;;;;;;;13.79;54.46;102401.38;5006703;28;20034;-84
2023/04/08 08:08:40;;;;;;;27.75;25.15;;;;;;;13.81;54.64;102403.88;5012805;28;20034;-85
2023/04/08 08:11:06;;;;;;;26.90;24.33;;;;;;;13.81;54.62;102404.72;5008230;28;20029;-85
2023/04/08 08:13:32;;;;;;;26.92;24.38;;;;;;;13.83;54.60;102404.47;5011963;28;20116;-85
2023/04/08 08:15:57;;;;;;;29.75;26.80;;;;;;;13.83;54.63;102410.75;5009923;28;20428;-83
2023/04/08 08:18:23;;;;;;;24.45;22.45;;;;;;;13.84;54.74;102411.59;4992162;28;20474;-85
2023/04/08 08:20:48;;;;;;;28.23;25.63;;;;;;;13.85;54.52;102416.78;4992444;28;20034;-83
2023/04/08 08:23:13;;;;;;;26.10;23.52;;;;;;;13.85;54.65;102414.06;4995874;28;20145;-83
2023/04/08 08:25:39;;;;;;;27.60;24.95;;;;;;;13.87;54.69;102413.03;5008398;28;20034;-80
2023/04/08 08:29:41;;;;;;;28.40;25.85;;;;;;;13.83;54.69;102421.63;5041562;27;1480716;-86
2023/04/08 08:32:07;;;;;;;28.48;25.55;;;;;;;13.89;54.86;102424.50;5091728;28;20044;-83
2023/04/08 08:34:32;;;;;;;29.20;26.17;;;;;;;13.94;54.48;102427.38;5087685;28;20064;-86
2023/04/08 08:36:58;;;;;;;29.50;26.80;;;;;;;13.98;54.57;102432.09;5086573;28;20036;-86
2023/04/08 08:39:23;;;;;;;27.85;25.38;;;;;;;14.01;54.45;102431.69;5088392;28;20404;-84
2023/04/08 08:41:49;;;;;;;29.27;26.50;;;;;;;14.02;54.35;102427.06;5101755;28;20032;-85
2023/04/08 08:44:14;;;;;;;26.88;24.48;;;;;;;14.05;54.22;102432.06;5106614;28;20039;-82
2023/04/08 08:46:43;;;;;;;28.95;26.25;;;;;;;14.05;54.43;102432.06;5096097;28;20510;-85
2023/04/08 08:49:10;;;;;;;28.08;25.50;;;;;;;14.08;54.22;102437.03;5107750;28;20027;-84
2023/04/08 08:51:38;;;;;;;28.60;25.75;;;;;;;14.10;54.61;102439.53;5095378;28;20036;-85
2023/04/08 08:54:07;;;;;;;32.87;29.13;;;;;;;14.12;54.54;102440.16;5089029;28;20447;-83
2023/04/08 08:56:33;;;;;;;29.85;26.98;;;;;;;14.14;54.32;102446.19;5101146;28;20035;-83
2023/04/08 08:58:58;;;;;;;33.65;30.48;;;;;;;14.15;54.40;102447.84;5079318;28;20036;-82
2023/04/08 09:01:34;;;;;;;29.33;26.42;;;;;;;14.17;54.52;102452.00;5096937;28;20483;-82
2023/04/08 09:04:18;;;;;;;35.05;31.27;;;;;;;14.17;54.38;102454.72;5095429;28;20119;-82
2023/04/08 09:06:46;;;;;;;29.10;26.33;;;;;;;14.19;54.61;102451.78;5089214;28;20896;-82
2023/04/08 09:09:11;;;;;;;32.90;29.65;;;;;;;14.20;54.39;102451.53;5090262;28;20031;-84
2023/04/08 09:11:42;;;;;;;29.27;26.80;;;;;;;14.22;54.58;102457.59;5103822;28;20043;-85
2023/04/08 09:14:24;;;;;;;31.67;28.35;;;;;;;14.22;54.45;102457.59;5094837;28;20182;-85
2023/04/08 09:16:51;;;;;;;26.88;24.77;;;;;;;14.24;54.36;102460.91;5088198;28;20054;-80
2023/04/08 09:19:17;;;;;;;29.77;26.63;;;;;;;14.25;54.49;102459.03;5086614;28;20028;-83
2023/04/08 09:21:42;;;;;;;29.20;27.08;;;;;;;14.27;54.71;102462.34;5105912;28;20918;-84
2023/04/08 09:24:09;;;;;;;30.92;27.92;;;;;;;14.28;54.67;102464.84;5104524;28;20406;-84
2023/04/08 09:26:36;;;;;;;29.35;26.65;;;;;;;14.30;54.74;102467.34;5101073;28;20104;-82
2023/04/08 09:29:03;;;;;;;29.42;27.10;;;;;;;14.32;54.83;102467.13;5098553;28;20055;-83
2023/04/08 09:31:30;;;;;;;30.35;27.38;;;;;;;14.33;54.67;102468.78;5100533;28;20047;-87
2023/04/08 09:34:08;;;;;;;29.67;26.90;;;;;;;14.34;54.85;102468.56;5104158;28;20045;-87
2023/04/08 09:36:33;;;;;;;31.98;29.17;;;;;;;14.36;54.85;102466.41;5092379;28;20027;-86
2023/04/08 09:38:58;;;;;;;31.55;28.65;;;;;;;14.38;54.66;102466.22;5103436;28;20433;-75
2023/04/08 09:41:27;;;;;;;31.50;28.27;;;;;;;14.39;54.72;102474.16;5074143;28;20047;-84
2023/04/08 09:43:54;;;;;;;31.90;28.30;;;;;;;14.40;54.69;102474.97;5092675;28;20086;-78
2023/04/08 09:46:31;;;;;;;24.85;23.20;;;;;;;14.39;54.99;102482.31;5074777;28;20033;-77
2023/04/08 09:49:17;;;;;;;32.75;29.30;;;;;;;14.40;54.61;102478.50;5091012;28;20036;-78
2023/04/08 09:52:05;;;;;;;29.30;26.90;;;;;;;14.41;54.91;102469.31;5093088;28;20032;-79
2023/04/08 09:54:48;;;;;;;29.65;27.10;;;;;;;14.43;55.01;102478.06;5091945;28;20464;-78
2023/04/08 09:57:21;;;;;;;28.95;26.45;;;;;;;14.44;55.05;102481.63;5087757;28;20131;-78
2023/04/08 09:59:56;;;;;;;28.80;25.92;;;;;;;14.46;55.10;102483.06;5083998;28;20028;-79
2023/04/08 10:02:29;;;;;;;32.95;29.20;;;;;;;14.50;55.09;102486.16;5088526;28;20039;-78
2023/04/08 10:04:57;;;;;;;29.80;27.42;;;;;;;14.53;54.89;102474.84;5092564;28;20059;-79
2023/04/08 10:07:23;;;;;;;30.17;27.70;;;;;;;14.53;55.03;102483.00;5092447;28;20027;-79
2023/04/08 10:09:49;;;;;;;32.08;28.92;;;;;;;14.55;54.91;102472.75;5089509;28;20031;-79
2023/04/08 10:12:15;;;;;;;32.80;29.50;;;;;;;14.58;55.05;102477.72;5075682;28;20654;-78
2023/04/08 10:14:40;;;;;;;30.13;27.73;;;;;;;14.61;54.59;102474.53;5072968;28;20468;-78
2023/04/08 10:17:41;;;;;;;32.47;29.73;;;;;;;14.60;54.95;102475.59;5072612;28;20486;-78
2023/04/08 10:20:32;;;;;;;32.35;29.48;;;;;;;14.61;55.32;102482.69;4990329;28;20062;-78
2023/04/08 10:22:57;;;;;;;34.25;29.65;;;;;;;14.64;55.01;102475.97;5085973;28;20119;-77
2023/04/08 10:25:32;;;;;;;32.55;29.35;;;;;;;14.67;55.19;102472.81;5093077;28;20431;-78
2023/04/08 10:28:00;;;;;;;25.27;23.48;;;;;;;14.69;55.00;102482.41;5072450;28;20032;-80
2023/04/08 10:30:30;;;;;;;36.58;32.17;;;;;;;14.72;55.26;102483.84;5076935;28;20036;-78
2023/04/08 10:32:59;;;;;;;59.08;41.05;;;;;;;14.74;54.99;102484.44;5072676;28;20177;-78
2023/04/08 10:35:33;;;;;;;30.75;27.80;;;;;;;14.77;55.21;102483.16;5072505;28;20076;-77
2023/04/08 10:38:00;;;;;;;30.02;27.60;;;;;;;14.80;55.18;102485.41;5071533;28;20121;-73
2023/04/08 10:40:26;;;;;;;31.95;28.80;;;;;;;14.81;54.95;102481.63;5073695;28;20040;-78
2023/04/08 10:42:55;;;;;;;33.30;30.02;;;;;;;14.83;55.16;102476.78;5072356;28;20036;-76
2023/04/08 10:45:21;;;;;;;30.60;27.70;;;;;;;14.85;55.00;102471.97;5071708;28;20528;-77
2023/04/08 10:47:46;;;;;;;32.67;29.73;;;;;;;14.89;55.10;102481.31;5072321;28;20067;-77
2023/04/08 10:50:13;;;;;;;30.40;27.80;;;;;;;14.90;55.03;102472.09;5075756;28;20020;-78
2023/04/08 10:52:50;;;;;;;35.00;31.42;;;;;;;14.91;55.35;102462.88;5079282;28;20589;-76
2023/04/08 10:55:22;;;;;;;35.03;31.17;;;;;;;14.92;55.07;102470.81;5071386;28;20135;-75
2023/04/08 10:57:49;;;;;;;33.60;30.50;;;;;;;14.96;54.99;102464.91;5076417;28;20028;-78
2023/04/08 11:00:35;;;;;;;29.88;27.40;;;;;;;14.98;54.81;102463.63;5079500;28;20047;-77
2023/04/08 11:03:06;;;;;;;32.13;29.27;;;;;;;15.00;55.15;102471.56;5091633;28;20035;-77
2023/04/08 11:05:32;;;;;;;30.20;27.50;;;;;;;15.02;55.02;102469.41;5085757;28;20030;-76
2023/04/08 11:07:59;;;;;;;31.55;28.98;;;;;;;15.04;55.04;102468.13;5077505;28;20029;-77
2023/04/08 11:10:25;;;;;;;30.88;28.27;;;;;;;15.06;54.95;102466.00;5078568;28;20021;-76